sensor_id;sensor_type;location;lat;lon;timestamp;P1;durP1;ratioP1;P2;durP2;ratioP2
74269;SDS011;62754;48.252;11.654;2022-09-16T00:00:29;6.90;;;4.50;;
74269;SDS011;62754;48.252;11.654;2022-09-16T00:02:56;7.05;;;5.00;;
74269;SDS011;62754;48.252;11.654;2022-09-16T00:05:22;7.82;;;4.65;;
74269;SDS011;62754;48.252;11.654;2022-09-16T00:07:47;8.25;;;4.78;;
74269;SDS011;62754;48.252;11.654;2022-09-16T00:10:13;6.35;;;4.63;;
74269;SDS011;62754;48.252;11.654;2022-09-16T00:12:39;9.38;;;5.60;;
74269;SDS011;62754;48.252;11.654;2022-09-16T00:15:06;5.93;;;4.55;;
74269;SDS011;62754;48.252;11.654;2022-09-16T00:17:32;6.90;;;4.35;;
74269;SDS011;62754;48.252;11.654;2022-09-16T00:19:58;6.53;;;4.43;;
74269;SDS011;62754;48.252;11.654;2022-09-16T00:22:24;6.75;;;4.88;;
74269;SDS011;62754;48.252;11.654;2022-09-16T00:24:52;8.80;;;4.47;;
74269;SDS011;62754;48.252;11.654;2022-09-16T00:27:17;5.72;;;3.72;;
74269;SDS011;62754;48.252;11.654;2022-09-16T00:29:43;6.63;;;4.30;;
74269;SDS011;62754;48.252;11.654;2022-09-16T00:32:09;8.38;;;4.68;;
74269;SDS011;62754;48.252;11.654;2022-09-16T00:34:34;6.80;;;4.38;;
74269;SDS011;62754;48.252;11.654;2022-09-16T00:37:00;6.93;;;4.10;;
74269;SDS011;62754;48.252;11.654;2022-09-16T00:39:26;6.95;;;4.30;;
74269;SDS011;62754;48.252;11.654;2022-09-16T00:41:52;6.80;;;3.58;;
74269;SDS011;62754;48.252;11.654;2022-09-16T00:47:38;7.93;;;3.92;;
74269;SDS011;62754;48.252;11.654;2022-09-16T00:50:19;7.28;;;3.67;;
74269;SDS011;62754;48.252;11.654;2022-09-16T00:52:51;5.72;;;3.53;;
74269;SDS011;62754;48.252;11.654;2022-09-16T00:55:20;6.38;;;3.70;;
74269;SDS011;62754;48.252;11.654;2022-09-16T00:57:51;5.88;;;4.07;;
74269;SDS011;62754;48.252;11.654;2022-09-16T01:00:19;6.25;;;4.07;;
74269;SDS011;62754;48.252;11.654;2022-09-16T01:02:45;6.00;;;3.78;;
74269;SDS011;62754;48.252;11.654;2022-09-16T01:05:15;5.40;;;3.55;;
74269;SDS011;62754;48.252;11.654;2022-09-16T01:07:49;7.13;;;3.75;;
74269;SDS011;62754;48.252;11.654;2022-09-16T01:10:17;7.72;;;4.53;;
74269;SDS011;62754;48.252;11.654;2022-09-16T01:12:53;5.50;;;3.80;;
74269;SDS011;62754;48.252;11.654;2022-09-16T01:15:25;7.15;;;4.03;;
74269;SDS011;62754;48.252;11.654;2022-09-16T01:32:02;5.53;;;3.45;;
74269;SDS011;62754;48.252;11.654;2022-09-16T01:34:53;7.75;;;3.95;;
74269;SDS011;62754;48.252;11.654;2022-09-16T01:37:38;6.15;;;3.40;;
74269;SDS011;62754;48.252;11.654;2022-09-16T01:42:56;5.82;;;3.50;;
74269;SDS011;62754;48.252;11.654;2022-09-16T01:51:05;6.93;;;3.33;;
74269;SDS011;62754;48.252;11.654;2022-09-16T01:53:46;7.30;;;4.47;;
74269;SDS011;62754;48.252;11.654;2022-09-16T01:59:02;5.47;;;3.47;;
74269;SDS011;62754;48.252;11.654;2022-09-16T02:01:53;7.30;;;3.60;;
74269;SDS011;62754;48.252;11.654;2022-09-16T02:04:27;4.22;;;3.50;;
74269;SDS011;62754;48.252;11.654;2022-09-16T02:06:58;5.93;;;3.75;;
74269;SDS011;62754;48.252;11.654;2022-09-16T02:09:28;6.25;;;3.92;;
74269;SDS011;62754;48.252;11.654;2022-09-16T02:11:59;5.20;;;3.63;;
74269;SDS011;62754;48.252;11.654;2022-09-16T02:14:28;7.03;;;3.58;;
74269;SDS011;62754;48.252;11.654;2022-09-16T02:16:59;5.15;;;3.42;;
74269;SDS011;62754;48.252;11.654;2022-09-16T02:22:10;5.35;;;3.80;;
74269;SDS011;62754;48.252;11.654;2022-09-16T02:24:39;5.82;;;3.65;;
74269;SDS011;62754;48.252;11.654;2022-09-16T02:27:08;4.97;;;3.22;;
74269;SDS011;62754;48.252;11.654;2022-09-16T02:29:40;6.38;;;3.50;;
74269;SDS011;62754;48.252;11.654;2022-09-16T02:32:11;5.10;;;3.58;;
74269;SDS011;62754;48.252;11.654;2022-09-16T02:34:49;5.72;;;3.97;;
74269;SDS011;62754;48.252;11.654;2022-09-16T02:37:17;5.07;;;3.30;;
74269;SDS011;62754;48.252;11.654;2022-09-16T02:39:48;4.80;;;3.55;;
74269;SDS011;62754;48.252;11.654;2022-09-16T02:42:17;7.00;;;3.28;;
74269;SDS011;62754;48.252;11.654;2022-09-16T02:44:43;6.55;;;3.35;;
74269;SDS011;62754;48.252;11.654;2022-09-16T02:47:11;4.70;;;3.10;;
74269;SDS011;62754;48.252;11.654;2022-09-16T02:52:47;5.65;;;3.35;;
74269;SDS011;62754;48.252;11.654;2022-09-16T02:58:15;5.90;;;3.40;;
74269;SDS011;62754;48.252;11.654;2022-09-16T03:00:42;6.47;;;3.72;;
74269;SDS011;62754;48.252;11.654;2022-09-16T03:03:11;4.78;;;3.20;;
74269;SDS011;62754;48.252;11.654;2022-09-16T03:05:48;5.00;;;3.13;;
74269;SDS011;62754;48.252;11.654;2022-09-16T03:08:28;6.32;;;3.83;;
74269;SDS011;62754;48.252;11.654;2022-09-16T03:10:54;5.40;;;3.63;;
74269;SDS011;62754;48.252;11.654;2022-09-16T03:13:35;6.45;;;3.90;;
74269;SDS011;62754;48.252;11.654;2022-09-16T03:16:11;6.80;;;3.50;;
74269;SDS011;62754;48.252;11.654;2022-09-16T03:21:24;7.05;;;3.80;;
74269;SDS011;62754;48.252;11.654;2022-09-16T03:24:17;6.80;;;3.67;;
74269;SDS011;62754;48.252;11.654;2022-09-16T03:26:58;5.22;;;3.60;;
74269;SDS011;62754;48.252;11.654;2022-09-16T03:29:33;5.57;;;3.80;;
74269;SDS011;62754;48.252;11.654;2022-09-16T03:32:17;5.55;;;4.20;;
74269;SDS011;62754;48.252;11.654;2022-09-16T03:34:53;5.57;;;3.83;;
74269;SDS011;62754;48.252;11.654;2022-09-16T03:37:23;6.18;;;4.15;;
74269;SDS011;62754;48.252;11.654;2022-09-16T03:39:55;7.88;;;4.05;;
74269;SDS011;62754;48.252;11.654;2022-09-16T03:42:24;8.18;;;4.32;;
74269;SDS011;62754;48.252;11.654;2022-09-16T03:44:50;6.88;;;4.13;;
74269;SDS011;62754;48.252;11.654;2022-09-16T03:47:16;5.60;;;4.07;;
74269;SDS011;62754;48.252;11.654;2022-09-16T03:49:42;6.80;;;4.60;;
74269;SDS011;62754;48.252;11.654;2022-09-16T03:52:08;6.38;;;4.30;;
74269;SDS011;62754;48.252;11.654;2022-09-16T03:54:35;8.75;;;4.32;;
74269;SDS011;62754;48.252;11.654;2022-09-16T03:57:01;6.20;;;4.50;;
74269;SDS011;62754;48.252;11.654;2022-09-16T03:59:28;5.85;;;4.03;;
74269;SDS011;62754;48.252;11.654;2022-09-16T04:01:54;6.68;;;4.07;;
74269;SDS011;62754;48.252;11.654;2022-09-16T04:04:20;6.60;;;4.70;;
74269;SDS011;62754;48.252;11.654;2022-09-16T04:06:45;7.25;;;4.38;;
74269;SDS011;62754;48.252;11.654;2022-09-16T04:09:11;7.32;;;4.55;;
74269;SDS011;62754;48.252;11.654;2022-09-16T04:11:38;8.23;;;5.03;;
74269;SDS011;62754;48.252;11.654;2022-09-16T04:14:04;7.63;;;4.90;;
74269;SDS011;62754;48.252;11.654;2022-09-16T04:16:31;8.93;;;4.85;;
74269;SDS011;62754;48.252;11.654;2022-09-16T04:18:57;7.65;;;4.70;;
74269;SDS011;62754;48.252;11.654;2022-09-16T04:21:23;8.23;;;4.90;;
74269;SDS011;62754;48.252;11.654;2022-09-16T04:23:49;8.60;;;4.57;;
74269;SDS011;62754;48.252;11.654;2022-09-16T04:26:15;9.15;;;4.78;;
74269;SDS011;62754;48.252;11.654;2022-09-16T04:28:42;7.97;;;5.05;;
74269;SDS011;62754;48.252;11.654;2022-09-16T04:31:11;11.40;;;5.30;;
74269;SDS011;62754;48.252;11.654;2022-09-16T04:33:38;8.10;;;5.30;;
74269;SDS011;62754;48.252;11.654;2022-09-16T04:36:04;7.57;;;5.20;;
74269;SDS011;62754;48.252;11.654;2022-09-16T04:38:33;7.20;;;5.05;;
74269;SDS011;62754;48.252;11.654;2022-09-16T04:41:00;11.40;;;5.53;;
74269;SDS011;62754;48.252;11.654;2022-09-16T04:43:36;8.88;;;5.63;;
74269;SDS011;62754;48.252;11.654;2022-09-16T04:46:02;12.15;;;5.47;;
74269;SDS011;62754;48.252;11.654;2022-09-16T04:48:29;10.38;;;5.53;;
74269;SDS011;62754;48.252;11.654;2022-09-16T04:51:00;7.20;;;5.43;;
74269;SDS011;62754;48.252;11.654;2022-09-16T04:53:34;10.23;;;5.78;;
74269;SDS011;62754;48.252;11.654;2022-09-16T04:56:05;9.23;;;5.65;;
74269;SDS011;62754;48.252;11.654;2022-09-16T04:58:31;10.43;;;5.82;;
74269;SDS011;62754;48.252;11.654;2022-09-16T05:01:02;11.70;;;6.00;;
74269;SDS011;62754;48.252;11.654;2022-09-16T05:03:28;11.10;;;5.47;;
74269;SDS011;62754;48.252;11.654;2022-09-16T05:06:02;9.25;;;6.00;;
74269;SDS011;62754;48.252;11.654;2022-09-16T05:08:28;10.77;;;6.57;;
74269;SDS011;62754;48.252;11.654;2022-09-16T05:10:54;9.65;;;6.30;;
74269;SDS011;62754;48.252;11.654;2022-09-16T05:13:21;13.05;;;5.85;;
74269;SDS011;62754;48.252;11.654;2022-09-16T05:15:47;10.70;;;6.47;;
74269;SDS011;62754;48.252;11.654;2022-09-16T05:18:13;10.43;;;6.22;;
74269;SDS011;62754;48.252;11.654;2022-09-16T05:20:39;10.20;;;6.43;;
74269;SDS011;62754;48.252;11.654;2022-09-16T05:23:04;10.95;;;6.47;;
74269;SDS011;62754;48.252;11.654;2022-09-16T05:25:30;9.48;;;6.25;;
74269;SDS011;62754;48.252;11.654;2022-09-16T05:27:57;9.40;;;5.97;;
74269;SDS011;62754;48.252;11.654;2022-09-16T05:30:23;9.52;;;6.30;;
74269;SDS011;62754;48.252;11.654;2022-09-16T05:32:51;11.23;;;6.05;;
74269;SDS011;62754;48.252;11.654;2022-09-16T05:35:18;9.15;;;6.18;;
74269;SDS011;62754;48.252;11.654;2022-09-16T05:37:43;9.85;;;6.03;;
74269;SDS011;62754;48.252;11.654;2022-09-16T05:40:09;10.15;;;6.88;;
74269;SDS011;62754;48.252;11.654;2022-09-16T05:42:35;10.43;;;5.38;;
74269;SDS011;62754;48.252;11.654;2022-09-16T05:45:01;9.25;;;6.30;;
74269;SDS011;62754;48.252;11.654;2022-09-16T05:47:26;16.58;;;6.50;;
74269;SDS011;62754;48.252;11.654;2022-09-16T05:49:52;7.72;;;5.55;;
74269;SDS011;62754;48.252;11.654;2022-09-16T05:52:18;7.82;;;5.55;;
74269;SDS011;62754;48.252;11.654;2022-09-16T05:54:44;9.00;;;6.40;;
74269;SDS011;62754;48.252;11.654;2022-09-16T05:57:09;9.52;;;6.13;;
74269;SDS011;62754;48.252;11.654;2022-09-16T05:59:35;10.77;;;6.32;;
74269;SDS011;62754;48.252;11.654;2022-09-16T06:02:01;9.25;;;5.60;;
74269;SDS011;62754;48.252;11.654;2022-09-16T06:04:27;8.73;;;5.85;;
74269;SDS011;62754;48.252;11.654;2022-09-16T06:06:52;12.10;;;6.43;;
74269;SDS011;62754;48.252;11.654;2022-09-16T06:09:19;9.70;;;6.38;;
74269;SDS011;62754;48.252;11.654;2022-09-16T06:11:47;11.80;;;6.50;;
74269;SDS011;62754;48.252;11.654;2022-09-16T06:14:15;9.35;;;5.57;;
74269;SDS011;62754;48.252;11.654;2022-09-16T06:16:41;10.70;;;6.10;;
74269;SDS011;62754;48.252;11.654;2022-09-16T06:19:12;10.13;;;6.35;;
74269;SDS011;62754;48.252;11.654;2022-09-16T06:21:40;9.23;;;5.95;;
74269;SDS011;62754;48.252;11.654;2022-09-16T06:24:06;8.15;;;5.63;;
74269;SDS011;62754;48.252;11.654;2022-09-16T06:26:32;8.18;;;5.72;;
74269;SDS011;62754;48.252;11.654;2022-09-16T06:28:59;9.52;;;6.18;;
74269;SDS011;62754;48.252;11.654;2022-09-16T06:31:25;10.07;;;6.80;;
74269;SDS011;62754;48.252;11.654;2022-09-16T06:33:53;11.48;;;5.80;;
74269;SDS011;62754;48.252;11.654;2022-09-16T06:36:20;9.20;;;5.80;;
74269;SDS011;62754;48.252;11.654;2022-09-16T06:38:48;13.80;;;6.70;;
74269;SDS011;62754;48.252;11.654;2022-09-16T06:41:15;9.75;;;6.40;;
74269;SDS011;62754;48.252;11.654;2022-09-16T06:43:42;8.52;;;6.05;;
74269;SDS011;62754;48.252;11.654;2022-09-16T06:46:10;9.95;;;6.68;;
74269;SDS011;62754;48.252;11.654;2022-09-16T06:48:41;12.52;;;6.80;;
74269;SDS011;62754;48.252;11.654;2022-09-16T06:51:12;14.40;;;6.85;;
74269;SDS011;62754;48.252;11.654;2022-09-16T06:53:40;9.30;;;6.55;;
74269;SDS011;62754;48.252;11.654;2022-09-16T06:56:07;9.38;;;6.50;;
74269;SDS011;62754;48.252;11.654;2022-09-16T06:58:34;12.85;;;7.07;;
74269;SDS011;62754;48.252;11.654;2022-09-16T07:01:07;11.30;;;6.15;;
74269;SDS011;62754;48.252;11.654;2022-09-16T07:03:38;10.85;;;7.18;;
74269;SDS011;62754;48.252;11.654;2022-09-16T07:06:05;9.18;;;6.07;;
74269;SDS011;62754;48.252;11.654;2022-09-16T07:08:33;10.88;;;6.15;;
74269;SDS011;62754;48.252;11.654;2022-09-16T07:11:04;13.93;;;7.47;;
74269;SDS011;62754;48.252;11.654;2022-09-16T07:13:31;9.82;;;6.75;;
74269;SDS011;62754;48.252;11.654;2022-09-16T07:15:59;11.25;;;6.50;;
74269;SDS011;62754;48.252;11.654;2022-09-16T07:18:26;12.00;;;6.35;;
74269;SDS011;62754;48.252;11.654;2022-09-16T07:23:30;9.95;;;6.88;;
74269;SDS011;62754;48.252;11.654;2022-09-16T07:25:58;10.05;;;7.05;;
74269;SDS011;62754;48.252;11.654;2022-09-16T07:28:45;9.48;;;6.72;;
74269;SDS011;62754;48.252;11.654;2022-09-16T07:31:14;13.98;;;6.35;;
74269;SDS011;62754;48.252;11.654;2022-09-16T07:33:43;9.45;;;6.90;;
74269;SDS011;62754;48.252;11.654;2022-09-16T07:36:11;11.70;;;7.05;;
74269;SDS011;62754;48.252;11.654;2022-09-16T07:38:39;12.98;;;6.90;;
74269;SDS011;62754;48.252;11.654;2022-09-16T07:43:38;9.90;;;6.40;;
74269;SDS011;62754;48.252;11.654;2022-09-16T07:46:05;11.70;;;6.60;;
74269;SDS011;62754;48.252;11.654;2022-09-16T07:48:32;11.40;;;7.22;;
74269;SDS011;62754;48.252;11.654;2022-09-16T07:50:59;9.82;;;6.97;;
74269;SDS011;62754;48.252;11.654;2022-09-16T07:53:27;10.32;;;6.65;;
74269;SDS011;62754;48.252;11.654;2022-09-16T07:55:54;12.40;;;6.90;;
74269;SDS011;62754;48.252;11.654;2022-09-16T07:58:21;11.98;;;6.22;;
74269;SDS011;62754;48.252;11.654;2022-09-16T08:00:47;14.70;;;7.20;;
74269;SDS011;62754;48.252;11.654;2022-09-16T08:03:14;15.32;;;8.32;;
74269;SDS011;62754;48.252;11.654;2022-09-16T08:05:40;12.60;;;6.32;;
74269;SDS011;62754;48.252;11.654;2022-09-16T08:08:06;13.68;;;6.68;;
74269;SDS011;62754;48.252;11.654;2022-09-16T08:10:32;11.35;;;6.82;;
74269;SDS011;62754;48.252;11.654;2022-09-16T08:12:58;10.85;;;6.65;;
74269;SDS011;62754;48.252;11.654;2022-09-16T08:15:24;12.10;;;6.47;;
74269;SDS011;62754;48.252;11.654;2022-09-16T08:17:49;13.15;;;6.95;;
74269;SDS011;62754;48.252;11.654;2022-09-16T08:20:15;10.93;;;6.97;;
74269;SDS011;62754;48.252;11.654;2022-09-16T08:22:41;10.95;;;6.85;;
74269;SDS011;62754;48.252;11.654;2022-09-16T08:25:07;9.85;;;6.15;;
74269;SDS011;62754;48.252;11.654;2022-09-16T08:27:35;10.18;;;6.05;;
74269;SDS011;62754;48.252;11.654;2022-09-16T08:30:02;11.27;;;6.43;;
74269;SDS011;62754;48.252;11.654;2022-09-16T08:32:29;13.32;;;8.35;;
74269;SDS011;62754;48.252;11.654;2022-09-16T08:34:54;8.80;;;6.25;;
74269;SDS011;62754;48.252;11.654;2022-09-16T08:37:20;13.27;;;7.22;;
74269;SDS011;62754;48.252;11.654;2022-09-16T08:39:46;11.20;;;6.65;;
74269;SDS011;62754;48.252;11.654;2022-09-16T08:45:12;10.38;;;6.05;;
74269;SDS011;62754;48.252;11.654;2022-09-16T08:50:21;12.88;;;6.72;;
74269;SDS011;62754;48.252;11.654;2022-09-16T08:52:52;10.90;;;6.35;;
74269;SDS011;62754;48.252;11.654;2022-09-16T08:55:29;11.10;;;7.30;;
74269;SDS011;62754;48.252;11.654;2022-09-16T09:00:24;11.15;;;6.78;;
74269;SDS011;62754;48.252;11.654;2022-09-16T09:05:33;11.25;;;7.45;;
74269;SDS011;62754;48.252;11.654;2022-09-16T09:10:51;12.88;;;7.55;;
74269;SDS011;62754;48.252;11.654;2022-09-16T09:24:18;13.10;;;8.15;;
74269;SDS011;62754;48.252;11.654;2022-09-16T09:27:13;12.88;;;7.63;;
74269;SDS011;62754;48.252;11.654;2022-09-16T09:41:11;14.70;;;8.40;;
74269;SDS011;62754;48.252;11.654;2022-09-16T09:44:01;14.82;;;8.93;;
74269;SDS011;62754;48.252;11.654;2022-09-16T09:51:47;13.52;;;8.88;;
74269;SDS011;62754;48.252;11.654;2022-09-16T09:54:24;13.43;;;9.20;;
74269;SDS011;62754;48.252;11.654;2022-09-16T09:56:54;14.20;;;8.88;;
74269;SDS011;62754;48.252;11.654;2022-09-16T09:59:40;14.07;;;9.48;;
74269;SDS011;62754;48.252;11.654;2022-09-16T10:02:13;16.15;;;10.02;;
74269;SDS011;62754;48.252;11.654;2022-09-16T10:04:44;13.70;;;9.65;;
74269;SDS011;62754;48.252;11.654;2022-09-16T10:07:14;16.15;;;9.55;;
74269;SDS011;62754;48.252;11.654;2022-09-16T10:09:47;15.07;;;9.65;;
74269;SDS011;62754;48.252;11.654;2022-09-16T10:12:26;14.50;;;9.65;;
74269;SDS011;62754;48.252;11.654;2022-09-16T10:14:54;10.77;;;7.53;;
74269;SDS011;62754;48.252;11.654;2022-09-16T10:17:19;11.10;;;8.43;;
74269;SDS011;62754;48.252;11.654;2022-09-16T10:19:49;11.63;;;7.10;;
74269;SDS011;62754;48.252;11.654;2022-09-16T10:22:28;12.35;;;7.28;;
74269;SDS011;62754;48.252;11.654;2022-09-16T10:24:59;11.75;;;7.18;;
74269;SDS011;62754;48.252;11.654;2022-09-16T10:27:30;7.93;;;5.25;;
74269;SDS011;62754;48.252;11.654;2022-09-16T10:30:02;7.07;;;4.13;;
74269;SDS011;62754;48.252;11.654;2022-09-16T10:32:48;7.03;;;4.22;;
74269;SDS011;62754;48.252;11.654;2022-09-16T10:35:32;6.95;;;3.92;;
74269;SDS011;62754;48.252;11.654;2022-09-16T10:38:04;9.63;;;4.07;;
74269;SDS011;62754;48.252;11.654;2022-09-16T10:40:54;26.70;;;4.88;;
74269;SDS011;62754;48.252;11.654;2022-09-16T10:43:23;9.73;;;4.68;;
74269;SDS011;62754;48.252;11.654;2022-09-16T10:45:51;9.68;;;4.13;;
74269;SDS011;62754;48.252;11.654;2022-09-16T10:48:20;6.53;;;3.90;;
74269;SDS011;62754;48.252;11.654;2022-09-16T10:50:55;6.78;;;4.10;;
74269;SDS011;62754;48.252;11.654;2022-09-16T10:53:34;6.93;;;4.30;;
74269;SDS011;62754;48.252;11.654;2022-09-16T10:56:05;7.30;;;3.95;;
74269;SDS011;62754;48.252;11.654;2022-09-16T10:58:40;12.50;;;4.82;;
74269;SDS011;62754;48.252;11.654;2022-09-16T11:09:18;10.38;;;6.30;;
74269;SDS011;62754;48.252;11.654;2022-09-16T11:12:02;7.63;;;5.35;;
74269;SDS011;62754;48.252;11.654;2022-09-16T11:14:36;6.40;;;4.28;;
74269;SDS011;62754;48.252;11.654;2022-09-16T11:17:25;6.88;;;3.38;;
74269;SDS011;62754;48.252;11.654;2022-09-16T11:27:36;5.78;;;4.18;;
74269;SDS011;62754;48.252;11.654;2022-09-16T11:30:23;9.32;;;4.82;;
74269;SDS011;62754;48.252;11.654;2022-09-16T11:54:08;8.95;;;5.88;;
74269;SDS011;62754;48.252;11.654;2022-09-16T11:56:39;7.80;;;5.00;;
74269;SDS011;62754;48.252;11.654;2022-09-16T11:59:19;6.63;;;4.38;;
74269;SDS011;62754;48.252;11.654;2022-09-16T12:04:30;6.40;;;3.92;;
74269;SDS011;62754;48.252;11.654;2022-09-16T12:07:15;5.68;;;4.00;;
74269;SDS011;62754;48.252;11.654;2022-09-16T12:09:52;7.68;;;4.07;;
74269;SDS011;62754;48.252;11.654;2022-09-16T12:12:39;6.85;;;4.38;;
74269;SDS011;62754;48.252;11.654;2022-09-16T12:15:18;5.60;;;3.78;;
74269;SDS011;62754;48.252;11.654;2022-09-16T12:17:55;11.20;;;6.53;;
74269;SDS011;62754;48.252;11.654;2022-09-16T12:20:27;9.90;;;4.60;;
74269;SDS011;62754;48.252;11.654;2022-09-16T12:23:07;7.53;;;3.67;;
74269;SDS011;62754;48.252;11.654;2022-09-16T12:25:38;7.53;;;3.80;;
74269;SDS011;62754;48.252;11.654;2022-09-16T12:33:53;8.55;;;4.22;;
74269;SDS011;62754;48.252;11.654;2022-09-16T12:36:23;9.85;;;6.60;;
74269;SDS011;62754;48.252;11.654;2022-09-16T12:38:56;7.82;;;4.78;;
74269;SDS011;62754;48.252;11.654;2022-09-16T12:46:37;8.52;;;5.47;;
74269;SDS011;62754;48.252;11.654;2022-09-16T13:03:47;4.63;;;2.85;;
74269;SDS011;62754;48.252;11.654;2022-09-16T13:09:13;4.60;;;2.50;;
74269;SDS011;62754;48.252;11.654;2022-09-16T13:11:51;4.70;;;2.40;;
74269;SDS011;62754;48.252;11.654;2022-09-16T13:14:29;4.85;;;2.50;;
74269;SDS011;62754;48.252;11.654;2022-09-16T13:16:58;4.90;;;2.03;;
74269;SDS011;62754;48.252;11.654;2022-09-16T13:19:31;4.15;;;2.50;;
74269;SDS011;62754;48.252;11.654;2022-09-16T13:33:23;6.75;;;2.42;;
74269;SDS011;62754;48.252;11.654;2022-09-16T13:36:02;3.80;;;2.50;;
74269;SDS011;62754;48.252;11.654;2022-09-16T13:38:38;4.95;;;2.83;;
74269;SDS011;62754;48.252;11.654;2022-09-16T13:41:09;5.85;;;2.25;;
74269;SDS011;62754;48.252;11.654;2022-09-16T13:46:12;4.30;;;2.55;;
74269;SDS011;62754;48.252;11.654;2022-09-16T13:51:28;4.47;;;2.08;;
74269;SDS011;62754;48.252;11.654;2022-09-16T13:53:55;5.93;;;2.80;;
74269;SDS011;62754;48.252;11.654;2022-09-16T13:59:04;5.78;;;2.63;;
74269;SDS011;62754;48.252;11.654;2022-09-16T14:15:14;5.80;;;3.25;;
74269;SDS011;62754;48.252;11.654;2022-09-16T14:17:41;8.18;;;3.38;;
74269;SDS011;62754;48.252;11.654;2022-09-16T14:20:17;8.85;;;3.15;;
74269;SDS011;62754;48.252;11.654;2022-09-16T14:22:46;4.40;;;2.83;;
74269;SDS011;62754;48.252;11.654;2022-09-16T14:27:51;5.50;;;3.00;;
74269;SDS011;62754;48.252;11.654;2022-09-16T14:30:17;4.45;;;3.30;;
74269;SDS011;62754;48.252;11.654;2022-09-16T14:32:45;5.68;;;3.33;;
74269;SDS011;62754;48.252;11.654;2022-09-16T14:35:22;6.60;;;3.50;;
74269;SDS011;62754;48.252;11.654;2022-09-16T14:37:51;6.20;;;3.75;;
74269;SDS011;62754;48.252;11.654;2022-09-16T14:40:21;6.43;;;3.08;;
74269;SDS011;62754;48.252;11.654;2022-09-16T14:43:00;5.70;;;3.22;;
74269;SDS011;62754;48.252;11.654;2022-09-16T14:45:29;7.47;;;3.75;;
74269;SDS011;62754;48.252;11.654;2022-09-16T14:47:56;5.05;;;3.33;;
74269;SDS011;62754;48.252;11.654;2022-09-16T14:50:29;4.80;;;3.20;;
74269;SDS011;62754;48.252;11.654;2022-09-16T14:52:58;6.07;;;3.25;;
74269;SDS011;62754;48.252;11.654;2022-09-16T14:55:27;4.63;;;3.00;;
74269;SDS011;62754;48.252;11.654;2022-09-16T14:57:54;5.32;;;3.30;;
74269;SDS011;62754;48.252;11.654;2022-09-16T15:00:21;4.95;;;2.90;;
74269;SDS011;62754;48.252;11.654;2022-09-16T15:03:02;6.45;;;3.63;;
74269;SDS011;62754;48.252;11.654;2022-09-16T15:05:37;5.80;;;3.88;;
74269;SDS011;62754;48.252;11.654;2022-09-16T15:10:50;6.13;;;3.55;;
74269;SDS011;62754;48.252;11.654;2022-09-16T15:13:24;5.50;;;3.40;;
74269;SDS011;62754;48.252;11.654;2022-09-16T15:15:56;5.35;;;3.40;;
74269;SDS011;62754;48.252;11.654;2022-09-16T15:18:30;6.32;;;4.07;;
74269;SDS011;62754;48.252;11.654;2022-09-16T15:23:35;6.00;;;3.80;;
74269;SDS011;62754;48.252;11.654;2022-09-16T15:31:43;7.22;;;3.65;;
74269;SDS011;62754;48.252;11.654;2022-09-16T15:36:41;8.52;;;3.75;;
74269;SDS011;62754;48.252;11.654;2022-09-16T15:39:23;5.32;;;3.90;;
74269;SDS011;62754;48.252;11.654;2022-09-16T15:44:45;6.60;;;3.80;;
74269;SDS011;62754;48.252;11.654;2022-09-16T15:47:34;7.00;;;3.75;;
74269;SDS011;62754;48.252;11.654;2022-09-16T15:50:06;10.45;;;4.05;;
74269;SDS011;62754;48.252;11.654;2022-09-16T15:55:36;7.28;;;3.95;;
74269;SDS011;62754;48.252;11.654;2022-09-16T16:03:20;6.00;;;3.75;;
74269;SDS011;62754;48.252;11.654;2022-09-16T16:05:49;7.72;;;3.80;;
74269;SDS011;62754;48.252;11.654;2022-09-16T16:08:58;6.18;;;4.07;;
74269;SDS011;62754;48.252;11.654;2022-09-16T16:11:12;6.55;;;3.80;;
74269;SDS011;62754;48.252;11.654;2022-09-16T16:13:40;6.03;;;3.85;;
74269;SDS011;62754;48.252;11.654;2022-09-16T16:16:06;8.00;;;3.67;;
74269;SDS011;62754;48.252;11.654;2022-09-16T16:18:32;6.35;;;3.30;;
74269;SDS011;62754;48.252;11.654;2022-09-16T16:21:03;5.47;;;3.42;;
74269;SDS011;62754;48.252;11.654;2022-09-16T16:23:31;6.47;;;4.18;;
74269;SDS011;62754;48.252;11.654;2022-09-16T16:25:57;4.75;;;3.50;;
74269;SDS011;62754;48.252;11.654;2022-09-16T16:28:22;7.78;;;3.80;;
74269;SDS011;62754;48.252;11.654;2022-09-16T16:30:48;7.38;;;3.58;;
74269;SDS011;62754;48.252;11.654;2022-09-16T16:33:14;6.18;;;3.92;;
74269;SDS011;62754;48.252;11.654;2022-09-16T16:35:40;6.60;;;3.72;;
74269;SDS011;62754;48.252;11.654;2022-09-16T16:38:06;7.22;;;3.88;;
74269;SDS011;62754;48.252;11.654;2022-09-16T16:40:31;4.65;;;3.13;;
74269;SDS011;62754;48.252;11.654;2022-09-16T16:42:57;5.50;;;3.75;;
74269;SDS011;62754;48.252;11.654;2022-09-16T16:45:23;6.00;;;3.85;;
74269;SDS011;62754;48.252;11.654;2022-09-16T16:47:49;6.15;;;3.90;;
74269;SDS011;62754;48.252;11.654;2022-09-16T16:50:14;7.38;;;4.20;;
74269;SDS011;62754;48.252;11.654;2022-09-16T16:52:40;8.07;;;4.15;;
74269;SDS011;62754;48.252;11.654;2022-09-16T16:55:06;5.78;;;3.92;;
74269;SDS011;62754;48.252;11.654;2022-09-16T16:57:32;7.85;;;3.95;;
74269;SDS011;62754;48.252;11.654;2022-09-16T16:59:58;6.88;;;4.10;;
74269;SDS011;62754;48.252;11.654;2022-09-16T17:02:24;8.88;;;4.88;;
74269;SDS011;62754;48.252;11.654;2022-09-16T17:04:49;6.32;;;4.03;;
74269;SDS011;62754;48.252;11.654;2022-09-16T17:07:15;5.45;;;3.35;;
74269;SDS011;62754;48.252;11.654;2022-09-16T17:09:41;7.28;;;3.95;;
74269;SDS011;62754;48.252;11.654;2022-09-16T17:12:06;7.35;;;4.65;;
74269;SDS011;62754;48.252;11.654;2022-09-16T17:14:32;7.13;;;4.05;;
74269;SDS011;62754;48.252;11.654;2022-09-16T17:16:58;7.13;;;3.95;;
74269;SDS011;62754;48.252;11.654;2022-09-16T17:19:24;8.13;;;4.45;;
74269;SDS011;62754;48.252;11.654;2022-09-16T17:21:51;6.88;;;4.55;;
74269;SDS011;62754;48.252;11.654;2022-09-16T17:26:43;7.13;;;3.67;;
74269;SDS011;62754;48.252;11.654;2022-09-16T17:29:10;7.15;;;4.32;;
74269;SDS011;62754;48.252;11.654;2022-09-16T17:31:36;8.23;;;4.20;;
74269;SDS011;62754;48.252;11.654;2022-09-16T17:34:02;6.18;;;4.07;;
74269;SDS011;62754;48.252;11.654;2022-09-16T17:36:29;5.45;;;3.80;;
74269;SDS011;62754;48.252;11.654;2022-09-16T17:38:57;6.70;;;3.83;;
74269;SDS011;62754;48.252;11.654;2022-09-16T17:41:24;5.78;;;4.05;;
74269;SDS011;62754;48.252;11.654;2022-09-16T17:43:51;6.03;;;3.78;;
74269;SDS011;62754;48.252;11.654;2022-09-16T17:46:18;6.05;;;3.75;;
74269;SDS011;62754;48.252;11.654;2022-09-16T17:48:44;5.13;;;3.92;;
74269;SDS011;62754;48.252;11.654;2022-09-16T17:51:10;8.57;;;3.72;;
74269;SDS011;62754;48.252;11.654;2022-09-16T17:53:35;5.78;;;4.03;;
74269;SDS011;62754;48.252;11.654;2022-09-16T17:56:06;8.88;;;3.75;;
74269;SDS011;62754;48.252;11.654;2022-09-16T17:58:34;7.03;;;4.05;;
74269;SDS011;62754;48.252;11.654;2022-09-16T18:01:14;8.02;;;4.18;;
74269;SDS011;62754;48.252;11.654;2022-09-16T18:03:42;6.50;;;4.43;;
74269;SDS011;62754;48.252;11.654;2022-09-16T18:08:40;7.55;;;4.93;;
74269;SDS011;62754;48.252;11.654;2022-09-16T18:11:06;7.07;;;3.88;;
74269;SDS011;62754;48.252;11.654;2022-09-16T18:13:34;5.95;;;4.40;;
74269;SDS011;62754;48.252;11.654;2022-09-16T18:18:26;9.00;;;4.78;;
74269;SDS011;62754;48.252;11.654;2022-09-16T18:20:53;6.40;;;4.68;;
74269;SDS011;62754;48.252;11.654;2022-09-16T18:25:54;9.02;;;4.85;;
74269;SDS011;62754;48.252;11.654;2022-09-16T18:28:27;8.02;;;4.88;;
74269;SDS011;62754;48.252;11.654;2022-09-16T18:31:03;7.50;;;4.32;;